Time;durP1;ratioP1;P1;durP2;ratioP2;P2;SDS_P1;SDS_P2;PMS_P1;PMS_P2;Temp;Humidity;BMP_temperature;BMP_pressure;BME280_temperature;BME280_humidity;BME280_pressure;Samples;Min_cycle;Max_cycle;Signal;HPM_P1;HPM_P2
2020/12/24 00:05:27;;;;;;;106.78;37.20;;;;;;;3.26;100.00;99662.97;10599047;83;21050;-90
2020/12/24 00:20:31;;;;;;;94.67;35.05;;;;;;;3.26;100.00;99621.94;10574778;83;20988;-92
2020/12/24 00:35:36;;;;;;;70.08;28.70;;;;;;;3.22;100.00;99573.83;10588325;83;21147;-92
2020/12/24 00:50:45;;;;;;;79.95;32.53;;;;;;;3.21;100.00;99519.88;10705164;82;21231;-93
2020/12/24 01:05:49;;;;;;;55.50;24.92;;;;;;;3.31;100.00;99483.30;10659444;83;21045;-92
2020/12/24 01:20:54;;;;;;;66.70;27.48;;;;;;;3.37;100.00;99460.47;10728411;83;21052;-89
2020/12/24 01:35:59;;;;;;;105.30;42.53;;;;;;;3.43;100.00;99421.12;10729191;82;21186;-89
2020/12/24 01:51:03;;;;;;;52.48;26.50;;;;;;;3.38;100.00;99383.87;10693810;82;21582;-89
2020/12/24 02:06:08;;;;;;;58.42;25.90;;;;;;;3.11;100.00;99326.58;10675230;83;21147;-92
2020/12/24 02:21:12;;;;;;;55.55;24.47;;;;;;;3.19;100.00;99309.18;10674753;82;21120;-92
2020/12/24 02:36:16;;;;;;;44.55;22.77;;;;;;;3.26;100.00;99274.56;10692196;80;20989;-87
2020/12/24 02:51:20;;;;;;;55.35;26.45;;;;;;;3.34;100.00;99252.81;10697856;80;21182;-88
2020/12/24 03:06:26;;;;;;;48.08;23.75;;;;;;;3.42;100.00;99192.13;10684349;82;21027;-89
2020/12/24 03:21:30;;;;;;;51.15;27.60;;;;;;;3.49;100.00;99184.70;10683770;82;21029;-91
2020/12/24 03:36:35;;;;;;;52.88;26.95;;;;;;;3.57;100.00;99159.00;10672747;83;21530;-91
2020/12/24 03:51:39;;;;;;;49.23;24.95;;;;;;;3.60;100.00;99098.28;10671968;82;21032;-92
2020/12/24 04:06:44;;;;;;;47.17;24.20;;;;;;;3.64;100.00;99073.76;10684154;82;21001;-92
2020/12/24 04:21:48;;;;;;;43.35;22.22;;;;;;;3.75;100.00;99058.64;10684604;83;21032;-93
2020/12/24 04:36:53;;;;;;;41.02;21.90;;;;;;;3.81;100.00;99019.25;10663810;82;21115;-89
2020/12/24 04:51:57;;;;;;;35.98;19.92;;;;;;;3.82;100.00;99004.84;10646104;82;20996;-87
2020/12/24 05:07:03;;;;;;;30.08;16.57;;;;;;;3.89;100.00;98995.28;10614387;82;21552;-93
2020/12/24 05:22:17;;;;;;;53.63;24.60;;;;;;;4.78;100.00;98975.44;10542554;83;21103;-92
2020/12/24 05:37:21;;;;;;;24.95;15.00;;;;;;;4.31;100.00;98953.78;10632167;83;21512;-90
2020/12/24 05:52:26;;;;;;;25.45;16.48;;;;;;;4.48;100.00;98932.41;10626387;83;21490;-88
2020/12/24 06:07:35;;;;;;;35.10;17.95;;;;;;;5.61;100.00;98924.52;10616350;83;21437;-89
2020/12/24 06:22:39;;;;;;;35.80;18.67;;;;;;;5.13;100.00;98919.58;10701912;83;21127;-89
2020/12/24 06:37:44;;;;;;;46.70;23.30;;;;;;;5.40;100.00;98929.35;10671038;82;21031;-86
2020/12/24 06:52:48;;;;;;;98.20;69.17;;;;;;;5.55;100.00;98910.75;10569495;83;21024;-86
2020/12/24 07:07:54;;;;;;;73.57;48.35;;;;;;;5.74;100.00;98951.55;10608214;83;21028;-89
2020/12/24 07:22:58;;;;;;;73.80;42.45;;;;;;;5.69;100.00;98945.47;10621419;82;21466;-90
2020/12/24 07:38:02;;;;;;;86.75;42.73;;;;;;;6.22;100.00;98945.52;10623892;83;21209;-90
2020/12/24 07:53:10;;;;;;;152.62;71.72;;;;;;;6.59;100.00;98940.83;10612677;82;21118;-90
2020/12/24 08:08:21;;;;;;;67.10;27.73;;;;;;;6.88;100.00;98944.30;10604776;82;21075;-90
2020/12/24 08:23:52;;;;;;;63.20;27.73;;;;;;;7.14;100.00;98939.23;10626942;82;21028;-91
2020/12/24 08:39:07;;;;;;;69.67;33.05;;;;;;;7.22;100.00;98931.48;10617108;82;21110;-90
2020/12/24 08:54:13;;;;;;;63.52;31.85;;;;;;;7.41;100.00;98940.97;10305614;85;21096;-91
2020/12/24 09:09:25;;;;;;;46.77;26.12;;;;;;;7.72;100.00;98926.27;10379226;83;21202;-89
2020/12/24 09:24:29;;;;;;;54.05;28.02;;;;;;;8.15;100.00;98913.36;10644432;82;20991;-88
2020/12/24 09:39:35;;;;;;;39.83;24.65;;;;;;;8.49;100.00;98902.17;10636202;82;21557;-89
2020/12/24 09:54:41;;;;;;;37.73;24.52;;;;;;;8.71;100.00;98902.11;10604672;83;21063;-90
2020/12/24 10:09:45;;;;;;;30.52;19.17;;;;;;;8.96;100.00;98885.18;10587524;83;21136;-87
2020/12/24 10:24:50;;;;;;;23.70;16.23;;;;;;;9.09;100.00;98871.66;10589695;83;21028;-88
2020/12/24 10:40:04;;;;;;;26.07;17.25;;;;;;;9.31;100.00;98863.19;10599703;82;21141;-87
2020/12/24 10:55:18;;;;;;;77.20;39.45;;;;;;;9.36;100.00;98849.63;10643031;83;21055;-87
2020/12/24 11:10:22;;;;;;;43.63;23.18;;;;;;;9.45;100.00;98845.23;10667410;83;21063;-86
2020/12/24 11:25:26;;;;;;;25.55;18.80;;;;;;;9.57;100.00;98824.78;10659572;83;21017;-87
2020/12/24 12:14:16;;;;;;;50.73;19.42;;;;;;;10.74;100.00;98774.47;10329260;83;21103;-88
2020/12/24 12:29:21;;;;;;;12.63;7.00;;;;;;;10.95;100.00;98755.48;10643581;82;21466;-87
2020/12/24 12:44:25;;;;;;;46.23;22.37;;;;;;;10.76;100.00;98758.88;10666118;82;21502;-86
2020/12/24 12:59:30;;;;;;;40.35;16.17;;;;;;;10.93;100.00;98763.53;10598867;82;21024;-86
2020/12/24 13:14:34;;;;;;;26.17;11.83;;;;;;;12.00;100.00;98752.59;10618811;82;21123;-86
2020/12/24 13:29:40;;;;;;;15.20;6.55;;;;;;;13.44;100.00;98736.59;10573536;83;21075;-86
2020/12/24 13:44:44;;;;;;;31.45;16.75;;;;;;;12.90;100.00;98762.42;10581824;83;21647;-87
2020/12/24 13:59:49;;;;;;;19.98;10.50;;;;;;;9.52;100.00;98768.97;10616272;83;21139;-84
2020/12/24 14:14:54;;;;;;;17.45;8.13;;;;;;;8.92;100.00;98758.33;10623545;82;21536;-88
2020/12/24 14:30:01;;;;;;;67.40;24.12;;;;;;;8.53;100.00;98745.86;10568410;82;21032;-85
2020/12/24 14:45:09;;;;;;;62.10;26.37;;;;;;;8.10;100.00;98729.69;10567452;82;21471;-88
2020/12/24 15:00:17;;;;;;;43.23;23.05;;;;;;;8.44;100.00;98755.43;10596970;83;21540;-89
2020/12/24 15:15:23;;;;;;;35.00;20.57;;;;;;;7.64;100.00;98774.31;10676604;83;21528;-88
2020/12/24 15:30:28;;;;;;;23.22;12.73;;;;;;;6.93;100.00;98779.14;10549158;83;21044;-87
2020/12/24 15:45:33;;;;;;;28.80;13.15;;;;;;;6.55;100.00;98771.91;10594604;83;21226;-87
2020/12/24 16:00:40;;;;;;;40.27;19.10;;;;;;;6.40;100.00;98758.08;10615531;83;21474;-87
2020/12/24 16:15:44;;;;;;;57.48;24.90;;;;;;;6.45;100.00;98744.59;10600978;83;21458;-86
2020/12/24 16:30:48;;;;;;;38.98;17.57;;;;;;;7.02;100.00;98753.47;10635533;83;21032;-86
2020/12/24 16:45:52;;;;;;;28.60;14.45;;;;;;;6.68;100.00;98745.47;10661218;83;21231;-86
2020/12/24 17:00:56;;;;;;;16.20;7.10;;;;;;;6.88;100.00;98733.95;10565919;83;21152;-86
2020/12/24 17:16:02;;;;;;;1139.43;482.62;;;;;;;6.49;100.00;98746.77;10597328;83;21045;-89
2020/12/24 17:31:07;;;;;;;31.15;13.50;;;;;;;6.41;100.00;98757.08;10501859;84;21065;-88
2020/12/24 17:46:13;;;;;;;14.73;6.58;;;;;;;6.21;100.00;98766.78;10299218;82;21097;-88
2020/12/24 18:01:17;;;;;;;22.15;9.00;;;;;;;6.07;100.00;98805.84;10541753;83;21052;-87
2020/12/24 18:16:23;;;;;;;12.50;6.30;;;;;;;5.75;100.00;98818.69;10578244;83;20997;-87
2020/12/24 18:31:28;;;;;;;35.60;19.37;;;;;;;5.16;100.00;98837.44;10584702;82;21053;-85
2020/12/24 18:46:33;;;;;;;24.87;11.15;;;;;;;4.80;100.00;98866.97;10605030;82;21456;-86
2020/12/24 19:01:37;;;;;;;10.80;5.28;;;;;;;4.70;100.00;98899.44;10649060;83;21460;-85
2020/12/24 19:16:43;;;;;;;12.60;6.47;;;;;;;4.40;100.00;98938.73;10647165;83;21040;-89
2020/12/24 19:31:49;;;;;;;12.65;6.28;;;;;;;3.26;100.00;98950.55;10641251;83;21068;-90
2020/12/24 19:46:53;;;;;;;13.53;7.22;;;;;;;4.12;100.00;98975.26;10602667;83;21068;-89
2020/12/24 20:01:58;;;;;;;22.37;8.78;;;;;;;4.13;100.00;98979.48;10648254;82;21013;-91
2020/12/24 20:17:03;;;;;;;21.90;7.00;;;;;;;4.10;100.00;99003.91;10676494;83;21024;-89
2020/12/24 20:32:07;;;;;;;15.83;6.78;;;;;;;3.41;100.00;99026.31;10626818;83;21122;-87
2020/12/24 20:47:11;;;;;;;17.65;7.62;;;;;;;3.27;100.00;99041.17;10641466;83;20997;-92
2020/12/24 21:02:40;;;;;;;13.20;6.45;;;;;;;3.31;100.00;99062.47;10539269;83;21586;-88
2020/12/24 21:17:45;;;;;;;14.85;8.13;;;;;;;3.36;100.00;99085.47;10375584;80;21148;-95
2020/12/24 21:32:49;;;;;;;46.02;13.53;;;;;;;3.22;100.00;99124.09;10125887;86;21029;-93
2020/12/24 21:47:54;;;;;;;41.35;15.28;;;;;;;3.35;100.00;99149.44;10114581;86;21168;-92
2020/12/24 22:03:00;;;;;;;15.75;7.50;;;;;;;3.33;100.00;99156.52;10314464;79;21227;-89
2020/12/24 22:18:05;;;;;;;14.10;6.17;;;;;;;3.48;100.00;99176.11;9848176;90;21073;-90
2020/12/24 22:33:10;;;;;;;10.60;4.83;;;;;;;3.42;100.00;99217.20;10242736;86;21250;-85
2020/12/24 22:48:17;;;;;;;9.85;6.20;;;;;;;3.42;100.00;99225.83;10225066;86;21215;-86
2020/12/24 23:03:22;;;;;;;24.40;10.20;;;;;;;3.36;100.00;99241.84;10275606;84;21143;-87
2020/12/24 23:18:27;;;;;;;13.93;6.42;;;;;;;3.46;100.00;99253.17;10288840;86;21097;-91
2020/12/24 23:33:33;;;;;;;8.78;4.60;;;;;;;3.49;100.00;99257.31;10278944;86;21191;-93
2020/12/24 23:48:37;;;;;;;12.47;5.15;;;;;;;3.47;100.00;99266.50;10256784;86;21567;-89
